Time;durP1;ratioP1;P1;durP2;ratioP2;P2;SDS_P1;SDS_P2;PMS_P1;PMS_P2;Temp;Humidity;BMP_temperature;BMP_pressure;BME280_temperature;BME280_humidity;BME280_pressure;Samples;Min_cycle;Max_cycle;Signal;HPM_P1;HPM_P2
2023/07/23 00:00:47;;;;;;;10.87;6.03;;;;;;;14.73;100.00;100534.28;6051763;28;20453;-63
2023/07/23 00:03:42;;;;;;;11.07;5.60;;;;;;;14.91;100.00;100526.00;6049417;28;20389;-64
2023/07/23 00:06:39;;;;;;;11.27;5.83;;;;;;;14.80;100.00;100526.41;6070622;28;20056;-63
2023/07/23 00:09:34;;;;;;;12.15;7.00;;;;;;;15.06;100.00;100545.56;6050329;28;20263;-63
2023/07/23 00:12:29;;;;;;;11.63;5.97;;;;;;;14.81;100.00;100520.88;6050413;28;20038;-63
2023/07/23 00:15:25;;;;;;;10.27;6.03;;;;;;;14.85;100.00;100510.69;6056602;28;20462;-63
2023/07/23 00:18:20;;;;;;;11.73;6.67;;;;;;;15.03;100.00;100521.09;6050393;28;20374;-63
2023/07/23 00:21:16;;;;;;;10.95;6.05;;;;;;;14.81;100.00;100520.88;6050070;28;20264;-63
2023/07/23 00:24:11;;;;;;;11.20;6.60;;;;;;;14.54;100.00;100504.59;6049360;28;20026;-63
2023/07/23 00:27:06;;;;;;;11.93;7.17;;;;;;;14.54;100.00;100496.59;6050234;28;20026;-63
2023/07/23 00:30:03;;;;;;;11.83;6.47;;;;;;;14.53;100.00;100510.91;6049876;28;20025;-63
2023/07/23 00:32:59;;;;;;;11.32;6.80;;;;;;;14.50;100.00;100489.94;6062116;28;20069;-63
2023/07/23 00:35:54;;;;;;;12.20;6.70;;;;;;;14.50;100.00;100484.59;6049869;28;20044;-63
2023/07/23 00:38:49;;;;;;;11.73;6.63;;;;;;;14.60;100.00;100495.84;6053480;28;20017;-63
2023/07/23 00:41:45;;;;;;;14.55;7.38;;;;;;;14.53;100.00;100489.56;6055875;28;20088;-63
2023/07/23 00:44:40;;;;;;;12.77;6.87;;;;;;;14.46;100.00;100484.09;6049182;28;20524;-63
2023/07/23 00:47:36;;;;;;;18.20;7.90;;;;;;;14.40;100.00;100476.00;6049997;28;20021;-63
2023/07/23 00:50:31;;;;;;;15.57;8.85;;;;;;;14.34;100.00;100477.53;6049760;28;20029;-63
2023/07/23 00:53:27;;;;;;;18.42;9.20;;;;;;;14.37;100.00;100487.84;6048950;28;20436;-63
2023/07/23 00:56:23;;;;;;;17.58;9.13;;;;;;;14.31;100.00;100485.84;6050340;28;20030;-63
2023/07/23 00:59:18;;;;;;;14.75;8.70;;;;;;;14.18;100.00;100470.41;6053004;28;20029;-63
2023/07/23 01:02:13;;;;;;;14.98;8.57;;;;;;;14.24;100.00;100476.91;6066379;28;20496;-63
2023/07/23 01:05:09;;;;;;;16.10;9.03;;;;;;;14.22;100.00;100468.22;6056816;28;20033;-64
2023/07/23 01:08:05;;;;;;;19.50;9.38;;;;;;;14.28;100.00;100468.34;6060133;28;20022;-64
2023/07/23 01:11:01;;;;;;;17.02;8.80;;;;;;;14.14;100.00;100461.09;6058694;28;20037;-64
2023/07/23 01:13:57;;;;;;;16.48;9.05;;;;;;;14.05;100.00;100442.66;6053280;28;20045;-64
2023/07/23 01:16:52;;;;;;;20.55;8.93;;;;;;;14.13;100.00;100451.41;6055521;28;20084;-64
2023/07/23 01:19:59;;;;;;;18.77;9.07;;;;;;;14.12;100.00;100439.13;6057522;28;20412;-64
2023/07/23 01:22:54;;;;;;;;;;;;;;;14.16;100.00;100440.41;6056930;28;20040;-63
2023/07/23 01:25:50;;;;;;;17.10;9.70;;;;;;;14.08;100.00;100416.44;6058559;28;19910;-63
2023/07/23 01:28:45;;;;;;;20.45;10.43;;;;;;;14.09;100.00;100417.28;6054133;28;20042;-64
2023/07/23 01:31:41;;;;;;;19.13;10.13;;;;;;;14.15;100.00;100417.44;6054025;28;20037;-64
2023/07/23 01:34:36;;;;;;;20.30;10.37;;;;;;;14.20;100.00;100425.72;6053517;28;20049;-64
2023/07/23 01:37:31;;;;;;;19.17;9.48;;;;;;;14.16;100.00;100424.41;6053004;28;20373;-63
2023/07/23 01:40:27;;;;;;;20.43;11.53;;;;;;;14.12;100.00;100412.44;6058285;28;20076;-64
2023/07/23 01:43:22;;;;;;;22.77;10.53;;;;;;;14.14;100.00;100413.09;6058478;28;20424;-63
2023/07/23 01:46:17;;;;;;;22.88;11.90;;;;;;;14.12;100.00;100400.94;6055242;28;20281;-64
2023/07/23 01:49:13;;;;;;;21.75;12.75;;;;;;;14.06;100.00;100391.81;6056696;28;20025;-63
2023/07/23 01:52:08;;;;;;;21.73;11.77;;;;;;;14.07;100.00;100401.47;6059522;28;20029;-63
2023/07/23 01:55:04;;;;;;;22.53;11.97;;;;;;;14.15;100.00;100401.44;6061629;28;20030;-64
2023/07/23 01:58:00;;;;;;;24.83;12.68;;;;;;;14.02;100.00;100385.16;6057481;28;20013;-63
2023/07/23 02:01:00;;;;;;;24.00;12.85;;;;;;;14.12;100.00;100407.13;6061086;28;20037;-64
2023/07/23 02:03:55;;;;;;;25.58;12.32;;;;;;;14.11;100.00;100394.78;6052436;28;20117;-64
2023/07/23 02:06:50;;;;;;;23.47;11.73;;;;;;;14.05;100.00;100376.81;6057578;28;20095;-64
2023/07/23 02:09:49;;;;;;;21.53;11.47;;;;;;;14.12;100.00;100379.59;6056200;28;20029;-64
2023/07/23 02:12:45;;;;;;;24.90;11.70;;;;;;;14.12;100.00;100377.78;6052670;28;20038;-64
2023/07/23 02:15:40;;;;;;;20.73;11.30;;;;;;;14.12;100.00;100380.44;6059096;28;20092;-64
2023/07/23 02:18:35;;;;;;;24.30;11.83;;;;;;;14.21;100.00;100392.69;6053954;28;20034;-64
2023/07/23 02:21:31;;;;;;;23.20;12.10;;;;;;;14.12;100.00;100390.28;6053286;28;20346;-64
2023/07/23 02:24:26;;;;;;;21.98;11.68;;;;;;;14.13;100.00;100381.28;6052065;28;20030;-64
2023/07/23 02:27:21;;;;;;;24.97;11.87;;;;;;;14.05;100.00;100374.13;6051043;28;20515;-64
2023/07/23 02:30:17;;;;;;;20.25;10.68;;;;;;;14.09;100.00;100370.13;6053141;28;20041;-64
2023/07/23 02:33:12;;;;;;;21.50;11.90;;;;;;;14.21;100.00;100376.69;6068765;28;20033;-64
2023/07/23 02:36:08;;;;;;;20.20;10.70;;;;;;;14.11;100.00;100368.09;6075205;28;20367;-64
2023/07/23 02:39:04;;;;;;;21.35;10.68;;;;;;;14.19;100.00;100385.88;6060723;28;20030;-64
2023/07/23 02:41:59;;;;;;;21.87;11.13;;;;;;;14.20;100.00;100387.56;6054132;28;20369;-65
2023/07/23 02:44:54;;;;;;;19.00;10.27;;;;;;;14.18;100.00;100374.41;6064948;28;20034;-65
2023/07/23 02:47:49;;;;;;;17.90;9.67;;;;;;;14.12;100.00;100359.13;6064041;28;20034;-64
2023/07/23 02:50:45;;;;;;;19.77;10.20;;;;;;;14.20;100.00;100372.38;6071333;28;20091;-64
2023/07/23 02:53:40;;;;;;;19.23;10.17;;;;;;;14.10;100.00;100347.81;6073961;28;20516;-64
2023/07/23 02:56:35;;;;;;;20.17;10.33;;;;;;;14.08;100.00;100347.13;6052230;28;20037;-64
2023/07/23 02:59:31;;;;;;;21.90;10.57;;;;;;;14.19;100.00;100361.88;6065694;28;20029;-64
2023/07/23 03:02:26;;;;;;;25.30;11.33;;;;;;;14.12;100.00;100353.78;6064842;28;20037;-64
2023/07/23 03:05:24;;;;;;;22.77;11.27;;;;;;;14.10;100.00;100347.81;6051430;28;20284;-65
2023/07/23 03:08:20;;;;;;;24.45;11.95;;;;;;;14.19;100.00;100360.06;6064467;28;20030;-65
2023/07/23 03:11:16;;;;;;;24.10;12.30;;;;;;;14.13;100.00;100344.75;6057157;28;20384;-65
2023/07/23 03:14:12;;;;;;;25.33;12.45;;;;;;;14.18;100.00;100347.75;6059553;28;20054;-65
2023/07/23 03:17:07;;;;;;;23.60;12.88;;;;;;;14.10;100.00;100338.97;6051328;28;20032;-65
2023/07/23 03:20:04;;;;;;;23.20;12.50;;;;;;;14.15;100.00;100342.75;6059800;28;20042;-65
2023/07/23 03:22:59;;;;;;;24.40;13.23;;;;;;;14.17;100.00;100348.75;6051688;28;20485;-65
2023/07/23 03:25:54;;;;;;;26.48;13.35;;;;;;;14.18;100.00;100345.06;6050930;28;20101;-65
2023/07/23 03:28:50;;;;;;;27.77;13.90;;;;;;;14.18;100.00;100347.75;6051169;28;20037;-65
2023/07/23 03:31:45;;;;;;;28.37;14.40;;;;;;;14.10;100.00;100323.81;6056327;28;20041;-65
2023/07/23 03:34:40;;;;;;;32.67;13.37;;;;;;;14.12;100.00;100324.44;6050527;28;20357;-65
2023/07/23 03:37:36;;;;;;;26.50;13.45;;;;;;;14.09;100.00;100319.47;6055922;28;20272;-65
2023/07/23 03:40:31;;;;;;;30.53;14.93;;;;;;;14.19;100.00;100333.38;6051105;28;20033;-63
2023/07/23 03:43:26;;;;;;;28.97;14.80;;;;;;;14.14;100.00;100322.41;6053069;28;20010;-63
2023/07/23 03:46:21;;;;;;;32.10;15.60;;;;;;;13.99;100.00;100302.88;6052509;28;20342;-63
2023/07/23 03:49:17;;;;;;;33.67;14.43;;;;;;;14.14;100.00;100324.25;6054969;28;20030;-63
2023/07/23 03:52:12;;;;;;;31.30;16.20;;;;;;;14.13;100.00;100320.75;6050567;28;20385;-63
2023/07/23 03:55:08;;;;;;;28.02;15.60;;;;;;;14.02;100.00;100307.84;6050563;28;20025;-63
2023/07/23 03:58:03;;;;;;;31.40;17.15;;;;;;;14.14;100.00;100314.41;6050556;28;20072;-64
2023/07/23 04:00:58;;;;;;;29.87;14.27;;;;;;;14.07;100.00;100297.50;6053468;28;20029;-63
2023/07/23 04:03:54;;;;;;;30.73;15.40;;;;;;;14.04;100.00;100302.34;6050295;28;20033;-64
2023/07/23 04:06:49;;;;;;;29.17;15.23;;;;;;;14.16;100.00;100307.06;6050048;28;20022;-64
2023/07/23 04:09:44;;;;;;;32.40;13.73;;;;;;;14.13;100.00;100290.63;6050127;28;20319;-64
2023/07/23 04:12:40;;;;;;;26.20;15.60;;;;;;;14.19;100.00;100285.38;6069959;28;20041;-63
2023/07/23 04:15:35;;;;;;;30.87;14.13;;;;;;;14.18;100.00;100282.91;6053616;28;20036;-63
2023/07/23 04:18:45;;;;;;;30.20;15.75;;;;;;;14.27;100.00;100287.13;6056429;28;20049;-63
2023/07/23 04:21:40;;;;;;;25.73;13.35;;;;;;;14.32;100.00;100285.63;6050730;28;20030;-64
2023/07/23 04:24:36;;;;;;;29.63;14.77;;;;;;;14.23;100.00;100268.00;6055052;28;20389;-64
2023/07/23 04:27:31;;;;;;;32.00;14.37;;;;;;;14.26;100.00;100259.66;6049756;28;20084;-64
2023/07/23 04:30:30;;;;;;;24.93;13.30;;;;;;;14.32;100.00;100264.28;6050138;28;20033;-65
2023/07/23 04:33:25;;;;;;;22.85;13.38;;;;;;;14.40;100.00;100270.56;6049556;28;20057;-65
2023/07/23 04:36:20;;;;;;;26.93;13.30;;;;;;;14.53;100.00;100281.44;6062365;28;20387;-65
2023/07/23 04:39:15;;;;;;;25.87;13.80;;;;;;;14.46;100.00;100253.84;6050081;28;20492;-64
2023/07/23 04:42:11;;;;;;;27.40;12.17;;;;;;;14.43;100.00;100249.66;6058347;28;20038;-65
2023/07/23 04:45:07;;;;;;;23.35;11.88;;;;;;;14.49;100.00;100264.13;6050984;28;20030;-65
2023/07/23 04:48:02;;;;;;;26.33;11.15;;;;;;;14.54;100.00;100265.22;6049454;28;20024;-65
2023/07/23 04:50:59;;;;;;;24.30;10.80;;;;;;;14.49;100.00;100248.09;6049621;28;20465;-65
2023/07/23 04:53:54;;;;;;;23.00;11.07;;;;;;;14.66;100.00;100250.44;6061915;28;20284;-65
2023/07/23 04:56:49;;;;;;;22.90;10.33;;;;;;;14.69;100.00;100246.56;6053577;28;20125;-65
2023/07/23 04:59:44;;;;;;;19.87;10.57;;;;;;;14.66;100.00;100230.91;6060099;28;20312;-65
2023/07/23 05:02:40;;;;;;;18.17;9.37;;;;;;;14.72;100.00;100243.53;6054932;28;20034;-65
2023/07/23 05:05:35;;;;;;;18.67;9.93;;;;;;;14.77;100.00;100252.66;6054663;28;20433;-65
2023/07/23 05:08:31;;;;;;;22.27;9.50;;;;;;;14.77;100.00;100257.16;6049435;28;20045;-65
2023/07/23 05:11:26;;;;;;;18.65;8.25;;;;;;;14.66;100.00;100233.59;6060925;28;20397;-65
2023/07/23 05:14:22;;;;;;;19.00;8.03;;;;;;;14.77;100.00;100249.16;6051816;28;20029;-66
2023/07/23 05:17:17;;;;;;;19.50;9.67;;;;;;;14.76;100.00;100231.47;6050527;28;20022;-66
2023/07/23 05:20:12;;;;;;;16.30;8.43;;;;;;;14.76;100.00;100231.47;6048979;28;20090;-66
2023/07/23 05:23:08;;;;;;;17.77;8.67;;;;;;;14.76;100.00;100224.28;6059037;28;20026;-65
2023/07/23 05:26:03;;;;;;;16.63;8.33;;;;;;;14.85;100.00;100233.03;6060909;28;20354;-65
2023/07/23 05:28:58;;;;;;;15.20;8.17;;;;;;;14.77;100.00;100225.13;6049487;28;20474;-65
2023/07/23 05:31:54;;;;;;;15.70;7.80;;;;;;;14.92;100.00;100228.59;6056579;28;20044;-66
2023/07/23 05:34:49;;;;;;;15.20;7.20;;;;;;;14.96;100.00;100213.88;6061027;28;20048;-66
2023/07/23 05:37:46;;;;;;;14.02;6.55;;;;;;;15.05;100.00;100227.94;6055869;28;20196;-65
2023/07/23 05:40:41;;;;;;;13.93;5.83;;;;;;;15.06;100.00;100213.56;6049336;28;20026;-66
2023/07/23 05:43:36;;;;;;;16.20;6.73;;;;;;;15.01;100.00;100211.47;6057011;28;20268;-66
2023/07/23 05:46:31;;;;;;;12.53;6.13;;;;;;;14.96;100.00;100202.34;6059973;28;20535;-66
2023/07/23 05:49:28;;;;;;;16.63;6.50;;;;;;;15.06;100.00;100208.22;6064579;28;20036;-66
2023/07/23 05:52:24;;;;;;;13.98;6.10;;;;;;;15.05;100.00;100196.75;6058424;28;20366;-65
2023/07/23 05:55:19;;;;;;;12.90;6.53;;;;;;;15.05;100.00;100188.72;6052652;28;20021;-66
2023/07/23 05:58:14;;;;;;;16.00;7.83;;;;;;;15.15;100.00;100185.75;6057011;28;20034;-66
2023/07/23 06:01:10;;;;;;;13.00;6.40;;;;;;;15.13;100.00;100188.63;6053368;28;20017;-65
2023/07/23 06:04:05;;;;;;;15.97;6.93;;;;;;;15.05;100.00;100177.22;6052242;28;20046;-66
2023/07/23 06:07:00;;;;;;;11.07;5.97;;;;;;;15.14;100.00;100174.22;6061533;28;20490;-65
2023/07/23 06:09:56;;;;;;;12.93;6.30;;;;;;;15.29;100.00;100183.03;6057199;28;20280;-65
2023/07/23 06:12:51;;;;;;;15.53;6.60;;;;;;;15.32;100.00;100171.16;6054706;28;20056;-66
2023/07/23 06:15:46;;;;;;;12.73;6.23;;;;;;;15.33;100.00;100168.28;6051750;28;20085;-66
2023/07/23 06:18:41;;;;;;;9.97;5.50;;;;;;;15.44;100.00;100159.75;6052213;28;20033;-66
2023/07/23 06:21:37;;;;;;;9.80;5.73;;;;;;;15.69;100.00;100162.06;6052846;28;20048;-66
2023/07/23 06:24:32;;;;;;;12.00;5.93;;;;;;;15.83;100.00;100148.63;6058958;28;20095;-65
2023/07/23 06:27:27;;;;;;;11.47;5.63;;;;;;;16.33;100.00;100136.84;6073250;28;20453;-66
2023/07/23 06:30:23;;;;;;;14.23;5.60;;;;;;;16.73;100.00;100158.47;6053551;28;20033;-66
2023/07/23 06:33:18;;;;;;;12.88;5.60;;;;;;;17.01;100.00;100149.28;6054039;28;20276;-66
2023/07/23 06:36:13;;;;;;;13.20;5.27;;;;;;;17.39;100.00;100136.22;6080146;28;20037;-66
2023/07/23 06:39:09;;;;;;;11.00;4.80;;;;;;;17.26;98.37;100130.81;6052936;28;20032;-66
2023/07/23 06:42:04;;;;;;;11.37;5.07;;;;;;;17.21;97.54;100130.59;6052588;28;20277;-67
2023/07/23 06:44:59;;;;;;;10.45;4.47;;;;;;;17.79;94.69;100145.13;6056112;28;20025;-66
2023/07/23 06:47:55;;;;;;;9.30;4.10;;;;;;;17.88;94.34;100140.38;6061377;28;20079;-66
2023/07/23 06:50:50;;;;;;;9.55;4.60;;;;;;;18.25;90.03;100116.38;6063110;28;20382;-66
2023/07/23 06:53:46;;;;;;;8.43;3.83;;;;;;;18.13;88.39;100111.84;6051153;28;20038;-65
2023/07/23 06:56:41;;;;;;;10.10;4.37;;;;;;;18.61;88.87;100131.19;6051350;28;20034;-66
2023/07/23 06:59:36;;;;;;;9.40;3.63;;;;;;;18.81;83.88;100121.16;6051940;28;20029;-66
2023/07/23 07:02:32;;;;;;;7.63;3.80;;;;;;;18.47;84.23;100132.22;6061952;28;20021;-66
2023/07/23 07:05:27;;;;;;;8.23;3.93;;;;;;;18.06;89.34;100119.94;6051455;28;20280;-65
2023/07/23 07:08:23;;;;;;;8.25;3.83;;;;;;;18.44;88.56;100130.78;6057249;28;20030;-66
2023/07/23 07:11:19;;;;;;;8.57;4.10;;;;;;;18.24;88.87;100124.63;6075662;28;20098;-65
2023/07/23 07:14:15;;;;;;;10.15;4.45;;;;;;;18.57;87.21;100117.34;6064082;28;20034;-66
2023/07/23 07:17:10;;;;;;;8.52;3.30;;;;;;;18.66;84.55;100112.56;6060096;28;20025;-66
2023/07/23 07:20:06;;;;;;;6.83;3.10;;;;;;;18.59;80.95;100112.56;6062446;28;20466;-66
2023/07/23 07:23:01;;;;;;;10.55;3.63;;;;;;;18.75;81.20;100111.28;6061955;28;20379;-65
2023/07/23 07:25:57;;;;;;;8.00;3.07;;;;;;;18.91;79.62;100100.06;6058525;28;20076;-66
2023/07/23 07:28:53;;;;;;;6.13;2.70;;;;;;;19.34;77.65;100101.03;6052738;28;20280;-65
2023/07/23 07:31:48;;;;;;;6.77;2.77;;;;;;;19.54;76.13;100114.34;6055823;28;20037;-66
2023/07/23 07:34:43;;;;;;;6.13;3.40;;;;;;;19.16;76.81;100083.97;6052458;28;20038;-66
2023/07/23 07:37:38;;;;;;;8.03;3.03;;;;;;;19.63;76.90;100094.19;6055143;28;20029;-66
2023/07/23 07:40:38;;;;;;;5.33;2.70;;;;;;;20.03;74.95;100084.69;6064069;28;20084;-65
2023/07/23 07:43:33;;;;;;;5.10;2.70;;;;;;;20.03;71.72;100081.22;6056023;28;20517;-66
2023/07/23 07:46:28;;;;;;;6.80;3.47;;;;;;;19.95;72.55;100076.91;6055718;28;20022;-66
2023/07/23 07:49:24;;;;;;;7.17;2.50;;;;;;;20.19;70.27;100088.69;6054638;28;20068;-66
2023/07/23 07:52:19;;;;;;;7.63;2.90;;;;;;;19.96;71.00;100093.91;6053537;28;20096;-66
2023/07/23 07:55:14;;;;;;;5.57;2.80;;;;;;;20.49;69.55;100076.13;6049485;28;20025;-66
2023/07/23 07:58:13;;;;;;;12.73;2.80;;;;;;;20.68;68.90;100074.25;6053096;28;20030;-66
2023/07/23 08:01:08;;;;;;;6.57;2.75;;;;;;;20.90;67.55;100074.59;6050723;28;20335;-66
2023/07/23 08:04:07;;;;;;;6.10;3.28;;;;;;;20.58;67.43;100068.56;6049958;28;20109;-66
2023/07/23 08:07:03;;;;;;;5.78;2.97;;;;;;;20.99;66.59;100051.63;6056391;28;20044;-66
2023/07/23 08:09:59;;;;;;;5.22;3.28;;;;;;;21.14;64.52;100066.38;6065474;28;20034;-66
2023/07/23 08:12:55;;;;;;;5.10;2.75;;;;;;;21.35;62.88;100057.75;6052332;28;20689;-66
2023/07/23 08:15:51;;;;;;;4.28;2.53;;;;;;;21.10;64.29;100058.97;6049286;28;20038;-66
2023/07/23 08:18:47;;;;;;;7.40;3.00;;;;;;;20.86;64.62;100055.34;6052286;28;20073;-66
2023/07/23 08:21:42;;;;;;;4.70;2.92;;;;;;;20.91;64.86;100043.88;6050306;28;20454;-66
2023/07/23 08:24:38;;;;;;;5.40;2.97;;;;;;;20.94;65.83;100065.81;6049447;28;20030;-66
2023/07/23 08:27:34;;;;;;;10.68;3.47;;;;;;;20.83;65.18;100061.19;6049680;28;20071;-66
2023/07/23 08:30:30;;;;;;;7.15;2.70;;;;;;;20.42;65.86;100050.31;6061519;28;20041;-66
2023/07/23 08:33:31;;;;;;;6.10;3.00;;;;;;;20.70;65.68;100064.06;6053220;28;20044;-67
2023/07/23 08:36:26;;;;;;;6.90;2.65;;;;;;;21.04;64.18;100071.47;6073962;28;20037;-66
2023/07/23 08:39:22;;;;;;;5.90;2.78;;;;;;;21.47;63.10;100070.44;6051986;28;20026;-66
2023/07/23 08:42:46;;;;;;;12.07;3.08;;;;;;;21.83;61.65;100070.22;6049566;28;20117;-66
2023/07/23 08:45:54;;;;;;;6.85;2.78;;;;;;;21.93;61.10;100062.38;6060327;28;20025;-66
2023/07/23 08:48:56;;;;;;;5.80;2.70;;;;;;;21.90;60.75;100060.97;6049600;28;20040;-66
2023/07/23 08:51:51;;;;;;;7.47;3.10;;;;;;;22.22;58.66;100049.78;6049974;28;20527;-66
2023/07/23 08:54:47;;;;;;;7.70;3.17;;;;;;;22.08;58.61;100061.88;6053701;28;20033;-66
2023/07/23 08:57:42;;;;;;;6.25;2.67;;;;;;;22.25;59.35;100049.31;6057345;28;20079;-66
2023/07/23 09:00:38;;;;;;;5.75;3.08;;;;;;;22.34;58.70;100064.09;6049894;28;20443;-67
2023/07/23 09:03:33;;;;;;;7.18;2.58;;;;;;;22.79;56.32;100064.22;6070575;28;20044;-66
2023/07/23 09:06:30;;;;;;;6.93;2.85;;;;;;;22.90;56.88;100052.53;6060245;28;20026;-67
2023/07/23 09:09:26;;;;;;;8.38;2.80;;;;;;;23.08;55.18;100050.41;6058350;28;20037;-66
2023/07/23 09:12:21;;;;;;;5.95;2.75;;;;;;;22.97;56.25;100039.66;6053371;28;20410;-67
2023/07/23 09:15:17;;;;;;;8.00;2.90;;;;;;;22.74;57.21;100047.91;6060740;28;20028;-67
2023/07/23 09:18:12;;;;;;;5.13;2.30;;;;;;;22.85;56.67;100031.63;6051091;28;20400;-65
2023/07/23 09:21:09;;;;;;;5.37;2.63;;;;;;;22.90;58.59;100039.00;6058388;28;20042;-65
2023/07/23 09:24:06;;;;;;;5.00;2.60;;;;;;;22.88;57.12;100047.34;6053046;28;20096;-65
2023/07/23 09:27:02;;;;;;;6.03;2.90;;;;;;;22.62;56.52;100044.38;6057009;28;20477;-66
2023/07/23 09:29:57;;;;;;;5.80;2.28;;;;;;;22.77;55.06;100048.25;6057243;28;20109;-65
2023/07/23 09:32:57;;;;;;;5.80;2.30;;;;;;;22.58;56.92;100035.94;6055525;28;20029;-66
2023/07/23 09:35:58;;;;;;;5.28;2.20;;;;;;;22.81;55.37;100038.56;6059062;28;20076;-66
2023/07/23 09:39:03;;;;;;;9.68;2.60;;;;;;;23.05;54.78;100048.19;6061568;28;20037;-66
2023/07/23 09:42:03;;;;;;;3.15;2.10;;;;;;;23.13;54.16;100048.88;6049512;28;20091;-65
2023/07/23 09:45:00;;;;;;;3.83;2.20;;;;;;;23.60;53.90;100045.66;6053352;28;20026;-65
2023/07/23 09:47:58;;;;;;;3.80;2.38;;;;;;;23.70;52.32;100039.53;6057285;28;20060;-65
2023/07/23 09:50:57;;;;;;;7.47;2.13;;;;;;;23.54;50.62;100054.75;6063619;28;20044;-65
2023/07/23 09:53:53;;;;;;;5.57;2.63;;;;;;;24.01;50.97;100040.81;6052928;28;20467;-66
2023/07/23 09:56:51;;;;;;;5.88;2.33;;;;;;;24.30;49.07;100044.22;6060492;28;20025;-65
2023/07/23 09:59:47;;;;;;;5.45;2.30;;;;;;;24.30;48.59;100044.22;6059158;28;20045;-65
2023/07/23 10:02:43;;;;;;;5.00;2.35;;;;;;;24.36;47.77;100024.22;6053663;28;20099;-65
2023/07/23 10:05:38;;;;;;;4.03;2.03;;;;;;;24.14;47.24;100013.38;6063572;28;20041;-66
2023/07/23 10:08:35;;;;;;;4.57;2.10;;;;;;;23.84;47.31;99996.69;6071152;28;20052;-65
2023/07/23 10:11:31;;;;;;;5.68;2.00;;;;;;;24.00;46.15;100003.94;6059307;28;20029;-65
2023/07/23 10:14:27;;;;;;;5.65;2.10;;;;;;;23.80;46.29;100009.09;6056553;28;20464;-65
2023/07/23 10:17:23;;;;;;;4.03;2.20;;;;;;;23.55;45.69;100020.38;6064665;28;20022;-65
2023/07/23 10:20:18;;;;;;;5.22;2.30;;;;;;;23.41;46.57;100014.47;6052228;28;20029;-66
2023/07/23 10:23:14;;;;;;;3.25;1.73;;;;;;;23.35;43.96;100026.25;6063459;28;20050;-65
2023/07/23 10:26:25;;;;;;;3.30;1.60;;;;;;;23.15;43.21;100031.34;6052246;28;20033;-65
2023/07/23 10:29:21;;;;;;;3.88;1.95;;;;;;;23.23;42.81;100022.81;6055384;28;20034;-66
2023/07/23 10:32:24;;;;;;;4.25;2.03;;;;;;;23.27;43.04;100026.66;6059657;28;20034;-66
2023/07/23 10:35:48;;;;;;;3.97;1.85;;;;;;;23.49;44.03;100027.59;6047171;28;20040;-66
2023/07/23 10:38:44;;;;;;;5.18;1.85;;;;;;;23.60;42.17;100021.28;6055655;28;20462;-67
2023/07/23 10:41:53;;;;;;;3.97;1.53;;;;;;;23.69;43.24;100033.34;6064552;28;20069;-66
2023/07/23 10:44:48;;;;;;;4.68;2.00;;;;;;;23.68;42.32;100020.03;6056248;28;21095;-66
2023/07/23 10:48:03;;;;;;;4.17;2.10;;;;;;;23.51;43.17;100022.75;6059533;28;20084;-66
2023/07/23 10:51:00;;;;;;;3.90;2.10;;;;;;;23.20;43.44;100034.13;6055955;28;20021;-66
2023/07/23 10:53:58;;;;;;;4.82;2.17;;;;;;;23.13;43.65;100026.16;6058144;28;20372;-66
2023/07/23 10:56:54;;;;;;;5.70;2.28;;;;;;;23.01;43.82;100040.81;6057275;28;20468;-66
2023/07/23 10:59:53;;;;;;;5.40;2.15;;;;;;;22.96;44.57;100038.88;6055944;28;20470;-66
2023/07/23 11:02:53;;;;;;;4.10;2.40;;;;;;;23.03;45.98;100027.88;6054140;28;20470;-66
2023/07/23 11:05:49;;;;;;;3.90;2.13;;;;;;;22.99;45.35;100021.31;6059338;28;20481;-66
2023/07/23 11:08:47;;;;;;;4.80;1.92;;;;;;;23.01;46.48;100021.91;6056601;28;20037;-66
2023/07/23 11:11:43;;;;;;;5.45;2.22;;;;;;;22.94;45.80;100023.91;6065474;28;20026;-66
2023/07/23 11:14:38;;;;;;;5.53;2.20;;;;;;;22.84;46.13;100019.16;6053511;28;20108;-66
2023/07/23 11:17:33;;;;;;;5.83;2.30;;;;;;;22.97;46.89;100036.94;6055592;28;20037;-66
2023/07/23 11:20:29;;;;;;;4.80;2.20;;;;;;;22.95;47.08;100039.91;6055394;28;20022;-66
2023/07/23 11:23:25;;;;;;;4.78;2.03;;;;;;;22.44;48.04;100040.81;6058902;28;20265;-66
2023/07/23 11:26:21;;;;;;;6.13;2.75;;;;;;;22.07;49.77;100039.47;6050949;28;20044;-68
2023/07/23 11:29:17;;;;;;;5.57;2.22;;;;;;;21.97;50.63;100039.25;6073295;28;20342;-67
2023/07/23 11:32:12;;;;;;;5.22;2.42;;;;;;;21.83;50.82;100041.34;6053889;28;20021;-66
2023/07/23 11:35:09;;;;;;;5.15;2.33;;;;;;;21.68;51.04;100051.78;6051368;28;20034;-67
2023/07/23 11:38:04;;;;;;;4.68;1.98;;;;;;;21.72;51.23;100041.34;6054633;28;20037;-66
2023/07/23 11:41:00;;;;;;;5.32;2.25;;;;;;;21.82;51.16;100047.00;6053406;28;20034;-66
2023/07/23 11:43:57;;;;;;;5.22;2.22;;;;;;;21.86;51.30;100042.75;6052926;28;20080;-67
2023/07/23 11:47:00;;;;;;;6.40;2.25;;;;;;;21.93;51.58;100038.09;6051196;28;20037;-66
2023/07/23 11:49:55;;;;;;;7.32;2.17;;;;;;;22.01;50.42;100034.19;6050994;28;20048;-66
2023/07/23 11:52:51;;;;;;;6.03;2.13;;;;;;;21.99;50.73;100031.72;6052889;28;20457;-67
2023/07/23 11:55:47;;;;;;;5.75;2.20;;;;;;;21.95;50.72;100025.16;6059417;28;20406;-67
2023/07/23 11:58:42;;;;;;;5.17;1.80;;;;;;;22.24;51.31;100032.28;6050886;28;20042;-67
2023/07/23 12:01:38;;;;;;;4.10;1.97;;;;;;;22.32;51.18;100037.31;6050349;28;20428;-67
2023/07/23 12:04:38;;;;;;;5.15;2.40;;;;;;;22.38;50.06;100025.53;6050219;28;20675;-66
2023/07/23 12:07:35;;;;;;;5.28;1.90;;;;;;;22.33;50.32;100033.56;6050091;28;20046;-67
2023/07/23 12:10:31;;;;;;;3.75;1.85;;;;;;;22.34;50.20;100029.78;6054399;28;20076;-67
2023/07/23 12:13:27;;;;;;;4.30;2.30;;;;;;;22.41;50.37;100035.88;6054334;28;20037;-67
2023/07/23 12:16:31;;;;;;;3.37;1.87;;;;;;;22.63;51.09;100037.91;6050260;28;20021;-67
2023/07/23 12:19:26;;;;;;;5.40;2.30;;;;;;;22.54;51.19;100034.75;6059102;28;20473;-67
2023/07/23 12:22:24;;;;;;;4.93;2.00;;;;;;;22.65;50.11;100031.22;6059829;28;20041;-67
2023/07/23 12:25:19;;;;;;;3.70;1.92;;;;;;;22.65;48.96;100033.09;6048913;28;20885;-67
2023/07/23 12:28:14;;;;;;;4.43;2.08;;;;;;;22.66;48.70;100051.81;6050047;28;20032;-67
2023/07/23 12:31:10;;;;;;;5.23;1.80;;;;;;;22.73;49.50;100049.78;6065003;28;20034;-67
2023/07/23 12:34:05;;;;;;;4.90;1.90;;;;;;;23.06;49.62;100038.22;6050029;28;20026;-66
2023/07/23 12:37:00;;;;;;;3.63;1.70;;;;;;;23.03;50.53;100044.94;6062228;28;20335;-67
2023/07/23 12:39:56;;;;;;;5.43;2.20;;;;;;;22.82;50.20;100042.91;6049705;28;20465;-67
2023/07/23 12:42:51;;;;;;;5.87;2.17;;;;;;;23.05;50.75;100040.09;6048362;28;20030;-67
2023/07/23 12:45:46;;;;;;;3.80;1.80;;;;;;;23.02;50.86;100062.22;6048246;28;20045;-66
2023/07/23 12:48:42;;;;;;;5.73;2.07;;;;;;;23.01;51.80;100054.34;6050102;28;20041;-67
2023/07/23 12:51:37;;;;;;;3.42;1.80;;;;;;;22.89;51.48;100067.09;6054284;28;20034;-66
2023/07/23 12:54:33;;;;;;;5.80;2.50;;;;;;;22.62;53.45;100057.88;6048228;28;20040;-67
2023/07/23 12:57:28;;;;;;;4.28;1.70;;;;;;;22.58;53.81;100079.19;6049648;28;20340;-67
2023/07/23 13:00:23;;;;;;;5.00;1.50;;;;;;;22.21;55.75;100057.06;6052985;28;20037;-67
2023/07/23 13:03:19;;;;;;;5.20;1.80;;;;;;;21.96;56.98;100080.78;6056497;28;20389;-67
2023/07/23 13:06:14;;;;;;;3.97;1.58;;;;;;;21.68;58.53;100077.97;6049190;28;20289;-66
2023/07/23 13:09:09;;;;;;;4.53;1.47;;;;;;;21.48;59.09;100104.44;6051066;28;20062;-67
2023/07/23 13:12:05;;;;;;;6.23;1.40;;;;;;;21.23;59.39;100088.44;6063390;28;20025;-66
2023/07/23 13:15:00;;;;;;;6.68;1.10;;;;;;;21.18;59.12;100066.72;6059654;28;20029;-68
2023/07/23 13:17:56;;;;;;;3.47;1.23;;;;;;;21.18;58.92;100072.13;6049864;28;20038;-67
2023/07/23 13:20:52;;;;;;;4.63;1.20;;;;;;;21.40;58.48;100083.19;6050435;28;20034;-66
2023/07/23 13:23:48;;;;;;;4.47;1.13;;;;;;;21.77;57.31;100093.56;6048524;28;20028;-67
2023/07/23 13:26:43;;;;;;;5.65;1.20;;;;;;;21.95;56.67;100079.16;6063434;28;20530;-67